AZU099 SBSL-TFFR
Flight info
| Callsign | AZU099 |
|---|---|
| Flight time | N/A |
| Altitude | 40000 |
| Route | SAVIO UZ81 BEL UA555 OIA/N0505F320 CR09 BUXEX/N0485F400 UA555 TRAPP UL454 ETBIG UL462 OMIKI DCT LIDOS LIDOS2Z |
| Aircraft | A359/H-SDE2E3GHIJ3J4J5LM1ORWXY/LB1D1 |
Departure
| Time | 2026-04-26 20:19 |
|---|---|
| Airport | Marechal Cunha Machado International Airport (SBSL) |
Arrival
| Time | N/A |
|---|---|
| Airport | Maryse Condé International Airport (TFFR) |
| Time | Latitude | Longitude | Altitude | Speed | Heading |
|---|---|---|---|---|---|
| 2026-04-26 20:07 | -2.58537 | -44.23878 | 170 ft | 0 kts | 340° |
| 2026-04-26 20:11 | -2.58539 | -44.23877 | 170 ft | 2 kts | 341° |
| 2026-04-26 20:12 | -2.58571 | -44.23869 | 170 ft | 2 kts | 357° |
| 2026-04-26 20:12 | -2.58587 | -44.23872 | 170 ft | 2 kts | 45° |
| 2026-04-26 20:12 | -2.58594 | -44.23883 | 170 ft | 1 kts | 68° |
| 2026-04-26 20:12 | -2.58595 | -44.23884 | 170 ft | 0 kts | 69° |
| 2026-04-26 20:15 | -2.58589 | -44.23871 | 170 ft | 9 kts | 69° |
| 2026-04-26 20:15 | -2.58544 | -44.23747 | 170 ft | 28 kts | 70° |
| 2026-04-26 20:16 | -2.58460 | -44.23516 | 169 ft | 29 kts | 70° |
| 2026-04-26 20:16 | -2.58455 | -44.23424 | 169 ft | 11 kts | 127° |
| 2026-04-26 20:16 | -2.58538 | -44.23408 | 169 ft | 15 kts | 205° |
| 2026-04-26 20:16 | -2.58652 | -44.23496 | 170 ft | 27 kts | 218° |
| 2026-04-26 20:17 | -2.58826 | -44.23635 | 169 ft | 38 kts | 218° |
| 2026-04-26 20:17 | -2.59061 | -44.23826 | 167 ft | 48 kts | 219° |
| 2026-04-26 20:17 | -2.59339 | -44.24051 | 167 ft | 55 kts | 219° |
| 2026-04-26 20:17 | -2.59528 | -44.24203 | 168 ft | 42 kts | 219° |
| 2026-04-26 20:18 | -2.59681 | -44.24350 | 168 ft | 1 kts | 238° |
| 2026-04-26 20:18 | -2.59691 | -44.24351 | 168 ft | 2 kts | 183° |
| 2026-04-26 20:18 | -2.59696 | -44.24340 | 168 ft | 2 kts | 108° |
| 2026-04-26 20:18 | -2.59683 | -44.24326 | 168 ft | 6 kts | 38° |
| 2026-04-26 20:19 | -2.59616 | -44.24273 | 168 ft | 18 kts | 38° |
| 2026-04-26 20:19 | -2.59356 | -44.24064 | 167 ft | 89 kts | 38° |
| 2026-04-26 20:19 | -2.58669 | -44.23509 | 201 ft | 161 kts | 38° |
| 2026-04-26 20:19 | -2.57756 | -44.22779 | 934 ft | 173 kts | 38° |
| 2026-04-26 20:20 | -2.56797 | -44.22009 | 1797 ft | 188 kts | 39° |
| 2026-04-26 20:20 | -2.55698 | -44.21129 | 2236 ft | 212 kts | 39° |
| 2026-04-26 20:20 | -2.54303 | -44.20533 | 2527 ft | 231 kts | 7° |
| 2026-04-26 20:20 | -2.52666 | -44.20895 | 2739 ft | 257 kts | 329° |
| 2026-04-26 20:21 | -2.51357 | -44.22151 | 3262 ft | 266 kts | 309° |
| 2026-04-26 20:21 | -2.50180 | -44.23608 | 3831 ft | 272 kts | 310° |
| 2026-04-26 20:21 | -2.48946 | -44.25064 | 4484 ft | 276 kts | 312° |
| 2026-04-26 20:21 | -2.47661 | -44.26501 | 5150 ft | 278 kts | 313° |
| 2026-04-26 20:22 | -2.46344 | -44.27932 | 5752 ft | 281 kts | 314° |
| 2026-04-26 20:22 | -2.45010 | -44.29379 | 6374 ft | 284 kts | 311° |
| 2026-04-26 20:22 | -2.43978 | -44.31070 | 6922 ft | 288 kts | 290° |
| 2026-04-26 20:22 | -2.43615 | -44.33038 | 7507 ft | 290 kts | 274° |
| 2026-04-26 20:23 | -2.43417 | -44.37525 | 8772 ft | 295 kts | 272° |
| 2026-04-26 20:23 | -2.43007 | -44.45984 | 10481 ft | 326 kts | 273° |
| 2026-04-26 20:23 | -2.42494 | -44.55758 | 11243 ft | 373 kts | 273° |
| 2026-04-26 20:23 | -2.41940 | -44.66253 | 12832 ft | 383 kts | 273° |
| 2026-04-26 20:24 | -2.41376 | -44.76917 | 14269 ft | 392 kts | 273° |
| 2026-04-26 20:24 | -2.40698 | -44.87914 | 15621 ft | 400 kts | 279° |
| 2026-04-26 20:24 | -2.37858 | -44.98771 | 17006 ft | 407 kts | 287° |
| 2026-04-26 20:24 | -2.34652 | -45.09745 | 18328 ft | 415 kts | 286° |
| 2026-04-26 20:25 | -2.31481 | -45.20953 | 19440 ft | 423 kts | 286° |
| 2026-04-26 20:25 | -2.29346 | -45.28497 | 20154 ft | 428 kts | 286° |
| 2026-04-26 20:25 | -2.24961 | -45.43989 | 21548 ft | 438 kts | 286° |
| 2026-04-26 20:25 | -2.21604 | -45.55802 | 22527 ft | 445 kts | 287° |
| 2026-04-26 20:26 | -2.18200 | -45.67799 | 23452 ft | 453 kts | 287° |
| 2026-04-26 20:26 | -2.14840 | -45.79642 | 24230 ft | 458 kts | 287° |
| 2026-04-26 20:26 | -2.11339 | -45.91976 | 25002 ft | 464 kts | 287° |
| 2026-04-26 20:26 | -2.07792 | -46.04465 | 25793 ft | 470 kts | 287° |
| 2026-04-26 20:27 | -2.04201 | -46.17107 | 26627 ft | 476 kts | 286° |
| 2026-04-26 20:27 | -2.00566 | -46.29901 | 27460 ft | 482 kts | 286° |
| 2026-04-26 20:27 | -1.97502 | -46.40680 | 28196 ft | 487 kts | 286° |
| 2026-04-26 20:27 | -1.93780 | -46.53772 | 29099 ft | 494 kts | 286° |
| 2026-04-26 20:28 | -1.89993 | -46.67085 | 30001 ft | 501 kts | 286° |
| 2026-04-26 20:28 | -1.86153 | -46.80580 | 30783 ft | 508 kts | 286° |
| 2026-04-26 20:28 | -1.82257 | -46.94268 | 31551 ft | 515 kts | 287° |
| 2026-04-26 20:28 | -1.78355 | -47.07977 | 32242 ft | 523 kts | 287° |
| 2026-04-26 20:29 | -1.75201 | -47.19051 | 32777 ft | 528 kts | 287° |
| 2026-04-26 20:29 | -1.73775 | -47.24117 | 33085 ft | 527 kts | 287° |
| 2026-04-26 20:29 | -1.72555 | -47.28441 | 33205 ft | 529 kts | 287° |
| 2026-04-26 20:29 | -1.71243 | -47.33649 | 33255 ft | 532 kts | 276° |
| 2026-04-26 20:30 | -1.71016 | -47.37352 | 33363 ft | 533 kts | 278° |
| 2026-04-26 20:30 | -1.70189 | -47.40938 | 33712 ft | 528 kts | 289° |
| 2026-04-26 20:30 | -1.67671 | -47.47659 | 34214 ft | 527 kts | 292° |
| 2026-04-26 20:30 | -1.65199 | -47.54532 | 34741 ft | 527 kts | 289° |
| 2026-04-26 20:31 | -1.63050 | -47.61540 | 35282 ft | 527 kts | 287° |
| 2026-04-26 20:31 | -1.61100 | -47.68406 | 35834 ft | 526 kts | 287° |
| 2026-04-26 20:31 | -1.59097 | -47.75533 | 36375 ft | 526 kts | 287° |
| 2026-04-26 20:31 | -1.57118 | -47.82516 | 36920 ft | 526 kts | 288° |
| 2026-04-26 20:32 | -1.55120 | -47.89542 | 37483 ft | 525 kts | 288° |
| 2026-04-26 20:32 | -1.53110 | -47.96557 | 37899 ft | 524 kts | 288° |
| 2026-04-26 20:32 | -1.51120 | -48.03496 | 37900 ft | 532 kts | 288° |
| 2026-04-26 20:33 | -1.47018 | -48.17836 | 37895 ft | 536 kts | 288° |
| 2026-04-26 20:33 | -1.42925 | -48.32151 | 37889 ft | 535 kts | 288° |
| 2026-04-26 20:34 | -1.37859 | -48.46007 | 37885 ft | 528 kts | 306° |
| 2026-04-26 20:34 | -1.32880 | -48.51271 | 37886 ft | 519 kts | 327° |
| 2026-04-26 20:34 | -1.26893 | -48.55255 | 37886 ft | 517 kts | 330° |
| 2026-04-26 20:35 | -1.14643 | -48.62787 | 37897 ft | 517 kts | 330° |
| 2026-04-26 20:35 | -1.02453 | -48.70409 | 37903 ft | 517 kts | 330° |
| 2026-04-26 20:36 | -0.90272 | -48.78052 | 37906 ft | 515 kts | 330° |
| 2026-04-26 20:36 | -0.78129 | -48.85668 | 37907 ft | 515 kts | 330° |
| 2026-04-26 20:37 | -0.65969 | -48.93289 | 37910 ft | 517 kts | 330° |
| 2026-04-26 20:37 | -0.53857 | -49.00882 | 37908 ft | 518 kts | 329° |
| 2026-04-26 20:38 | -0.41636 | -49.08544 | 37907 ft | 519 kts | 329° |
| 2026-04-26 20:38 | -0.29381 | -49.16226 | 37910 ft | 520 kts | 329° |
| 2026-04-26 20:39 | -0.17120 | -49.23912 | 37915 ft | 520 kts | 330° |
| 2026-04-26 20:39 | -0.04858 | -49.31598 | 37911 ft | 521 kts | 330° |
| 2026-04-26 20:40 | 0.07447 | -49.39311 | 37911 ft | 521 kts | 330° |
| 2026-04-26 20:40 | 0.19743 | -49.47019 | 37909 ft | 522 kts | 329° |
| 2026-04-26 20:41 | 0.32066 | -49.54743 | 37907 ft | 523 kts | 329° |
| 2026-04-26 20:41 | 0.44404 | -49.62478 | 37909 ft | 524 kts | 329° |
| 2026-04-26 20:42 | 0.56667 | -49.70165 | 37912 ft | 524 kts | 330° |
| 2026-04-26 20:42 | 0.69048 | -49.77927 | 37911 ft | 525 kts | 330° |
| 2026-04-26 20:43 | 0.81429 | -49.85689 | 37908 ft | 525 kts | 330° |
| 2026-04-26 20:43 | 0.93804 | -49.93449 | 37908 ft | 525 kts | 330° |
| 2026-04-26 20:44 | 1.06190 | -50.01215 | 37902 ft | 525 kts | 330° |
| 2026-04-26 20:44 | 1.18587 | -50.08989 | 37904 ft | 526 kts | 329° |
| 2026-04-26 20:45 | 1.30981 | -50.16762 | 37901 ft | 526 kts | 329° |
| 2026-04-26 20:45 | 1.43374 | -50.24536 | 37904 ft | 526 kts | 329° |
| 2026-04-26 20:46 | 1.55769 | -50.32313 | 37905 ft | 526 kts | 329° |
| 2026-04-26 20:46 | 1.68173 | -50.40095 | 37906 ft | 526 kts | 329° |
| 2026-04-26 20:47 | 1.80570 | -50.47874 | 37909 ft | 526 kts | 329° |
| 2026-04-26 20:47 | 1.89711 | -50.53611 | 37912 ft | 526 kts | 329° |
| 2026-04-26 20:48 | 1.93566 | -50.56031 | 37911 ft | 526 kts | 329° |
| 2026-04-26 20:48 | 2.04186 | -50.62697 | 37908 ft | 526 kts | 329° |
| 2026-04-26 20:49 | 2.16578 | -50.70478 | 37908 ft | 526 kts | 329° |
| 2026-04-26 20:49 | 2.28890 | -50.78396 | 37912 ft | 526 kts | 329° |
| 2026-04-26 20:50 | 2.41199 | -50.86364 | 37909 ft | 527 kts | 329° |
| 2026-04-26 20:50 | 2.53201 | -50.94112 | 37912 ft | 526 kts | 329° |
| 2026-04-26 20:51 | 2.65517 | -51.02066 | 37913 ft | 526 kts | 329° |
| 2026-04-26 20:51 | 2.77799 | -51.10000 | 37909 ft | 525 kts | 329° |
| 2026-04-26 20:52 | 2.90081 | -51.17936 | 37907 ft | 525 kts | 329° |
| 2026-04-26 20:52 | 3.02326 | -51.25850 | 37906 ft | 524 kts | 329° |
| 2026-04-26 20:53 | 3.14547 | -51.33751 | 37909 ft | 523 kts | 329° |
| 2026-04-26 20:53 | 3.26751 | -51.41643 | 37910 ft | 522 kts | 329° |
| 2026-04-26 20:54 | 3.36886 | -51.48200 | 37904 ft | 521 kts | 329° |
| 2026-04-26 20:54 | 3.49062 | -51.56077 | 37901 ft | 521 kts | 329° |
| 2026-04-26 20:55 | 3.61227 | -51.63951 | 37902 ft | 521 kts | 329° |
| 2026-04-26 20:55 | 3.73402 | -51.71834 | 37909 ft | 520 kts | 329° |
| 2026-04-26 20:56 | 3.85563 | -51.79711 | 37911 ft | 520 kts | 329° |
| 2026-04-26 20:56 | 3.97858 | -51.87128 | 37911 ft | 519 kts | 332° |
| 2026-04-26 20:57 | 4.10297 | -51.94454 | 37902 ft | 518 kts | 331° |
| 2026-04-26 20:57 | 4.22699 | -52.01845 | 37901 ft | 518 kts | 331° |
| 2026-04-26 20:58 | 4.35075 | -52.09221 | 37904 ft | 518 kts | 331° |
| 2026-04-26 20:58 | 4.47475 | -52.16614 | 37905 ft | 518 kts | 331° |
| 2026-04-26 20:59 | 4.59854 | -52.23996 | 37910 ft | 518 kts | 331° |
| 2026-04-26 20:59 | 4.72229 | -52.31379 | 37910 ft | 518 kts | 331° |
| 2026-04-26 21:00 | 4.84278 | -52.39285 | 37911 ft | 519 kts | 322° |
| 2026-04-26 21:00 | 4.95354 | -52.48538 | 37912 ft | 518 kts | 321° |
| 2026-04-26 21:01 | 5.06307 | -52.57768 | 37913 ft | 517 kts | 321° |
| 2026-04-26 21:01 | 5.17394 | -52.67079 | 37919 ft | 516 kts | 321° |
| 2026-04-26 21:02 | 5.28307 | -52.76250 | 37916 ft | 514 kts | 321° |
| 2026-04-26 21:02 | 5.39259 | -52.85458 | 37915 ft | 513 kts | 321° |
| 2026-04-26 21:03 | 5.50210 | -52.94669 | 37918 ft | 513 kts | 321° |
| 2026-04-26 21:03 | 5.61148 | -53.03875 | 37923 ft | 514 kts | 321° |
| 2026-04-26 21:04 | 5.72114 | -53.13108 | 37927 ft | 514 kts | 321° |
| 2026-04-26 21:04 | 5.83072 | -53.22340 | 37926 ft | 515 kts | 321° |
| 2026-04-26 21:05 | 5.94053 | -53.31596 | 37932 ft | 515 kts | 321° |
| 2026-04-26 21:05 | 6.05014 | -53.40840 | 37931 ft | 514 kts | 321° |
| 2026-04-26 21:06 | 6.15915 | -53.50040 | 37934 ft | 514 kts | 321° |
| 2026-04-26 21:06 | 6.26794 | -53.59225 | 37934 ft | 514 kts | 321° |
| 2026-04-26 21:07 | 6.37730 | -53.68464 | 37935 ft | 514 kts | 321° |
| 2026-04-26 21:07 | 6.48666 | -53.77709 | 37939 ft | 513 kts | 321° |
| 2026-04-26 21:08 | 6.59600 | -53.86955 | 37939 ft | 514 kts | 321° |
| 2026-04-26 21:08 | 6.70545 | -53.96217 | 37938 ft | 514 kts | 321° |
| 2026-04-26 21:09 | 6.81480 | -54.05477 | 37932 ft | 514 kts | 321° |
| 2026-04-26 21:09 | 6.92416 | -54.14743 | 37942 ft | 514 kts | 321° |
| 2026-04-26 21:10 | 7.03359 | -54.24021 | 37950 ft | 514 kts | 321° |
| 2026-04-26 21:10 | 7.14302 | -54.33305 | 37943 ft | 514 kts | 321° |
| 2026-04-26 21:11 | 7.25234 | -54.42584 | 37940 ft | 514 kts | 321° |
| 2026-04-26 21:11 | 7.36172 | -54.51877 | 37946 ft | 514 kts | 321° |
| 2026-04-26 21:12 | 7.47108 | -54.61173 | 37953 ft | 514 kts | 321° |
| 2026-04-26 21:12 | 7.58031 | -54.70464 | 37954 ft | 514 kts | 321° |
| 2026-04-26 21:13 | 7.68949 | -54.79759 | 37949 ft | 513 kts | 321° |
| 2026-04-26 21:13 | 7.79798 | -54.88998 | 37941 ft | 513 kts | 321° |
| 2026-04-26 21:14 | 7.90702 | -54.98293 | 37952 ft | 513 kts | 321° |
| 2026-04-26 21:14 | 8.01608 | -55.07598 | 37956 ft | 513 kts | 321° |
| 2026-04-26 21:15 | 8.12519 | -55.16912 | 37949 ft | 514 kts | 321° |
| 2026-04-26 21:15 | 8.23426 | -55.26228 | 37940 ft | 514 kts | 321° |
| 2026-04-26 21:16 | 8.28892 | -55.30899 | 37962 ft | 514 kts | 321° |
| 2026-04-26 21:16 | 8.32863 | -55.34293 | 37957 ft | 514 kts | 321° |
| 2026-04-26 21:17 | 8.38324 | -55.38965 | 37943 ft | 514 kts | 321° |
| 2026-04-26 21:17 | 8.43782 | -55.43637 | 37963 ft | 514 kts | 321° |
| 2026-04-26 21:17 | 8.47860 | -55.47128 | 38412 ft | 507 kts | 321° |
| 2026-04-26 21:18 | 8.53184 | -55.51688 | 38945 ft | 497 kts | 321° |
| 2026-04-26 21:18 | 8.63636 | -55.60640 | 38956 ft | 496 kts | 321° |
| 2026-04-26 21:19 | 8.70986 | -55.66941 | 38954 ft | 496 kts | 321° |
| 2026-04-26 21:19 | 8.77226 | -55.72293 | 38958 ft | 496 kts | 321° |
| 2026-04-26 21:20 | 8.83129 | -55.77358 | 38955 ft | 496 kts | 320° |
| 2026-04-26 21:20 | 8.89743 | -55.83036 | 38954 ft | 495 kts | 320° |
| 2026-04-26 21:21 | 8.94998 | -55.87549 | 38954 ft | 495 kts | 320° |
| 2026-04-26 21:21 | 9.00247 | -55.92059 | 38956 ft | 495 kts | 320° |
| 2026-04-26 21:22 | 9.05495 | -55.96569 | 38959 ft | 495 kts | 320° |
| 2026-04-26 21:22 | 9.10719 | -56.01098 | 38963 ft | 494 kts | 319° |
| 2026-04-26 21:23 | 9.32766 | -56.21947 | 38959 ft | 494 kts | 317° |
| 2026-04-26 21:23 | 9.44882 | -56.33338 | 37965 ft | 498 kts | 316° |
| 2026-04-26 21:24 | 9.58324 | -56.45995 | 37958 ft | 497 kts | 316° |